createdAt,value
2019-04-11T00:00:34.003Z,74.20
2019-04-11T00:03:02.987Z,74.60
2019-04-11T00:05:31.724Z,74.30
2019-04-11T00:08:01.750Z,74.00
2019-04-11T00:10:31.174Z,75.70
2019-04-11T00:13:01.102Z,74.60
2019-04-11T00:15:29.425Z,74.70
2019-04-11T00:17:58.584Z,75.30
2019-04-11T00:20:28.394Z,74.70
2019-04-11T00:22:57.656Z,73.40
2019-04-11T00:25:27.476Z,73.70
2019-04-11T00:27:57.215Z,73.70
2019-04-11T00:30:26.283Z,73.50
2019-04-11T00:32:54.589Z,73.80
2019-04-11T00:35:23.804Z,73.00
2019-04-11T00:37:52.202Z,75.50
2019-04-11T00:40:21.556Z,74.90
2019-04-11T00:42:50.511Z,74.20
2019-04-11T00:45:19.258Z,73.50
2019-04-11T00:47:49.048Z,72.50
2019-04-11T00:50:16.918Z,73.00
2019-04-11T00:52:45.530Z,75.00
2019-04-11T00:55:15.347Z,73.00
2019-04-11T00:57:43.892Z,73.50
2019-04-11T01:00:13.099Z,73.30
2019-04-11T01:02:43.273Z,73.50
2019-04-11T01:05:13.043Z,73.60
2019-04-11T01:07:41.437Z,73.20
2019-04-11T01:10:09.854Z,73.70
2019-04-11T01:12:38.191Z,73.60
2019-04-11T01:15:08.112Z,73.00
2019-04-11T01:17:35.753Z,73.20
2019-04-11T01:20:05.245Z,73.10
2019-04-11T01:22:34.038Z,73.00
2019-04-11T01:25:04.127Z,72.30
2019-04-11T01:27:33.905Z,73.20
2019-04-11T01:30:04.076Z,73.90
2019-04-11T01:32:33.117Z,73.00
2019-04-11T01:35:01.358Z,72.30
2019-04-11T01:37:29.845Z,72.90
2019-04-11T01:40:01.386Z,73.50
2019-04-11T01:42:31.248Z,73.50
2019-04-11T01:44:59.625Z,74.10
2019-04-11T01:47:33.238Z,74.60
2019-04-11T01:50:02.991Z,73.40
2019-04-11T01:52:31.563Z,73.40
2019-04-11T01:55:01.947Z,74.10
2019-04-11T01:57:30.450Z,74.10
2019-04-11T01:59:59.684Z,74.60
2019-04-11T02:02:30.609Z,76.00
2019-04-11T02:05:13.007Z,74.50
2019-04-11T02:07:42.487Z,74.30
2019-04-11T02:10:12.668Z,74.40
2019-04-11T02:12:41.445Z,74.20
2019-04-11T02:15:10.275Z,75.00
2019-04-11T02:17:39.122Z,74.50
2019-04-11T02:20:09.024Z,74.50
2019-04-11T02:22:42.642Z,74.20
2019-04-11T02:25:19.184Z,75.10
2019-04-11T02:27:48.388Z,74.00
2019-04-11T02:30:18.895Z,73.60
2019-04-11T02:32:47.973Z,74.30
2019-04-11T02:35:17.673Z,74.20
2019-04-11T02:37:50.019Z,74.00
2019-04-11T02:40:20.103Z,73.50
2019-04-11T02:42:49.847Z,73.90
2019-04-11T02:45:34.030Z,74.70
2019-04-11T02:47:53.232Z,73.80
2019-04-11T02:50:21.991Z,74.30
2019-04-11T02:52:52.116Z,74.80
2019-04-11T02:55:21.685Z,75.00
2019-04-11T02:57:50.876Z,74.60
2019-04-11T03:00:20.538Z,74.40
2019-04-11T03:02:52.060Z,74.50
2019-04-11T03:05:20.888Z,75.20
2019-04-11T03:07:49.883Z,76.10
2019-04-11T03:10:18.898Z,74.80
2019-04-11T03:12:49.213Z,75.70
2019-04-11T03:15:31.857Z,75.10
2019-04-11T03:17:49.375Z,74.80
2019-04-11T03:20:26.578Z,74.90
2019-04-11T03:22:53.089Z,75.50
2019-04-11T03:25:17.839Z,75.40
2019-04-11T03:27:47.541Z,76.80
2019-04-11T03:30:23.405Z,76.00
2019-04-11T03:33:47.001Z,75.20
2019-04-11T03:36:07.529Z,75.50
2019-04-11T03:38:13.813Z,76.60
2019-04-11T03:40:36.873Z,75.60
2019-04-11T03:43:04.142Z,76.10
2019-04-11T03:45:37.925Z,77.40
2019-04-11T03:48:02.417Z,76.50
2019-04-11T03:50:21.355Z,75.70
2019-04-11T03:52:46.359Z,75.90
2019-04-11T03:55:15.668Z,76.30
2019-04-11T03:57:47.047Z,76.40
2019-04-11T04:00:15.702Z,76.50
2019-04-11T04:02:46.572Z,77.40
2019-04-11T04:05:15.298Z,76.30
2019-04-11T04:07:44.440Z,77.00
2019-04-11T04:10:15.684Z,77.40
2019-04-11T04:12:45.303Z,77.20
2019-04-11T04:15:47.428Z,77.40
2019-04-11T04:18:15.050Z,77.10
2019-04-11T04:21:01.942Z,77.80
2019-04-11T04:23:35.849Z,79.50
2019-04-11T04:26:07.409Z,77.80
2019-04-11T04:28:37.976Z,77.70
2019-04-11T04:31:06.904Z,78.10
2019-04-11T04:33:36.343Z,79.00
2019-04-11T04:36:10.110Z,79.80
2019-04-11T04:38:38.680Z,78.50
2019-04-11T04:41:18.875Z,78.70
2019-04-11T04:43:36.681Z,79.70
2019-04-11T04:46:23.776Z,78.70
2019-04-11T04:48:35.236Z,78.60
2019-04-11T04:51:08.479Z,78.60
2019-04-11T04:53:33.801Z,79.00
2019-04-11T04:56:03.223Z,79.70
2019-04-11T04:58:33.808Z,79.50
2019-04-11T05:01:04.145Z,81.50
2019-04-11T05:03:34.159Z,79.90
2019-04-11T05:06:03.858Z,78.80
2019-04-11T05:08:32.540Z,79.40
2019-04-11T05:11:02.201Z,79.30
2019-04-11T05:13:32.196Z,79.40
2019-04-11T05:16:08.452Z,80.00
2019-04-11T05:18:30.398Z,80.00
2019-04-11T05:20:58.964Z,80.20
2019-04-11T05:23:27.665Z,79.70
2019-04-11T05:25:57.145Z,80.20
2019-04-11T05:28:25.910Z,80.30
2019-04-11T05:30:55.330Z,80.50
2019-04-11T05:33:25.240Z,80.20
2019-04-11T05:35:54.215Z,80.90
2019-04-11T05:38:23.086Z,81.90
2019-04-11T05:40:52.386Z,82.80
2019-04-11T05:43:22.515Z,82.00
2019-04-11T05:45:53.617Z,80.40
2019-04-11T05:48:30.602Z,81.00
2019-04-11T05:51:00.525Z,81.40
2019-04-11T05:53:32.844Z,81.70
2019-04-11T05:56:01.579Z,81.60
2019-04-11T05:58:32.463Z,81.70
2019-04-11T06:01:06.000Z,81.30
2019-04-11T06:03:39.421Z,81.20
2019-04-11T06:06:09.279Z,81.60
2019-04-11T06:08:37.869Z,81.30
2019-04-11T06:11:14.423Z,80.70
2019-04-11T06:13:42.798Z,82.10
2019-04-11T06:16:12.537Z,81.30
2019-04-11T06:18:45.895Z,82.10
2019-04-11T06:21:16.042Z,82.40
2019-04-11T06:23:48.126Z,81.30
2019-04-11T06:30:07.584Z,83.00
2019-04-11T06:35:44.096Z,81.70
2019-04-11T06:38:24.635Z,82.70
2019-04-11T06:41:16.687Z,83.30
2019-04-11T06:44:08.804Z,83.00
2019-04-11T06:46:54.854Z,84.00
2019-04-11T06:49:39.566Z,83.40
2019-04-11T06:52:12.736Z,83.50
2019-04-11T06:54:45.582Z,83.20
2019-04-11T06:57:16.041Z,84.40
2019-04-11T06:59:46.030Z,83.40
2019-04-11T07:02:19.428Z,83.10
2019-04-11T07:04:46.292Z,83.90
2019-04-11T07:07:14.752Z,83.60
2019-04-11T07:09:49.093Z,84.70
2019-04-11T07:12:19.380Z,84.20
2019-04-11T07:15:10.736Z,83.70
2019-04-11T07:17:57.034Z,83.60
2019-04-11T07:20:43.927Z,84.50
2019-04-11T07:23:30.928Z,84.30
2019-04-11T07:26:07.948Z,83.30
2019-04-11T07:28:39.231Z,84.30
2019-04-11T07:31:10.560Z,84.60
2019-04-11T07:33:45.055Z,84.60
2019-04-11T07:36:31.973Z,84.70
2019-04-11T07:39:12.692Z,84.20
2019-04-11T07:41:43.884Z,85.80
2019-04-11T07:44:17.771Z,85.50
2019-04-11T07:47:13.712Z,84.90
2019-04-11T07:49:37.220Z,85.80
2019-04-11T07:52:11.054Z,85.50
2019-04-11T07:54:39.618Z,85.10
2019-04-11T07:57:28.386Z,85.20
2019-04-11T08:00:15.785Z,85.10
2019-04-11T08:03:02.158Z,84.70
2019-04-11T08:05:35.043Z,84.00
2019-04-11T08:08:09.156Z,85.10
2019-04-11T08:10:39.721Z,86.80
2019-04-11T08:13:16.516Z,85.20
2019-04-11T08:16:02.212Z,84.50
2019-04-11T08:18:32.821Z,84.90
2019-04-11T08:21:19.939Z,84.70
2019-04-11T08:23:50.147Z,85.00
2019-04-11T08:26:36.675Z,85.00
2019-04-11T08:29:11.658Z,85.40
2019-04-11T08:31:56.599Z,85.40
2019-04-11T08:34:27.082Z,83.50
2019-04-11T08:37:07.378Z,84.10
2019-04-11T08:39:37.313Z,84.50
2019-04-11T08:42:13.524Z,85.10
2019-04-11T08:44:43.866Z,84.70
2019-04-11T08:47:12.435Z,86.20
2019-04-11T08:49:43.086Z,86.30
2019-04-11T08:52:13.906Z,85.90
2019-04-11T08:54:50.172Z,85.80
2019-04-11T08:57:36.166Z,85.90
2019-04-11T09:00:26.186Z,86.60
2019-04-11T09:02:57.533Z,85.70
2019-04-11T09:05:27.683Z,85.30
2019-04-11T09:08:12.808Z,85.20
2019-04-11T09:11:02.234Z,86.10
2019-04-11T09:13:41.839Z,87.10
2019-04-11T09:16:29.636Z,87.70
2019-04-11T09:19:16.757Z,88.70
2019-04-11T09:22:03.224Z,86.80
2019-04-11T09:24:43.122Z,87.30
2019-04-11T09:27:31.204Z,87.60
2019-04-11T09:30:19.018Z,87.60
2019-04-11T09:33:06.801Z,87.00
2019-04-11T09:35:41.512Z,88.20
2019-04-11T09:38:15.984Z,88.50
2019-04-11T09:41:02.393Z,88.60
2019-04-11T09:43:33.827Z,89.70
2019-04-11T09:46:10.271Z,89.10
2019-04-11T09:48:53.848Z,88.60
2019-04-11T09:51:42.586Z,89.80
2019-04-11T09:54:12.976Z,90.00
2019-04-11T09:56:51.999Z,89.80
2019-04-11T09:59:31.509Z,90.30
2019-04-11T10:02:05.894Z,90.10
2019-04-11T10:04:36.180Z,90.40
2019-04-11T10:07:23.776Z,90.80
2019-04-11T10:10:00.254Z,90.90
2019-04-11T10:12:40.460Z,91.40
2019-04-11T10:15:09.371Z,91.20
2019-04-11T10:17:50.508Z,91.60
2019-04-11T10:20:21.965Z,91.70
2019-04-11T10:22:54.400Z,91.70
2019-04-11T10:25:23.715Z,91.40
2019-04-11T10:28:11.179Z,91.20
2019-04-11T10:30:57.978Z,91.10
2019-04-11T10:33:44.891Z,91.50
2019-04-11T10:36:25.217Z,91.90
2019-04-11T10:39:11.636Z,91.50
2019-04-11T10:41:47.918Z,91.50
2019-04-11T10:44:19.215Z,91.80
2019-04-11T10:46:49.547Z,91.80
2019-04-11T10:49:26.313Z,91.70
2019-04-11T10:51:56.395Z,92.00
2019-04-11T10:54:24.552Z,91.90
2019-04-11T10:56:57.850Z,91.80
2019-04-11T10:59:28.050Z,92.20
2019-04-11T11:02:04.527Z,92.20
2019-04-11T11:04:34.851Z,92.30
2019-04-11T11:07:04.931Z,92.50
2019-04-11T11:09:38.823Z,92.80
2019-04-11T11:12:09.071Z,92.80
2019-04-11T11:14:55.451Z,92.60
2019-04-11T11:17:54.548Z,92.00
2019-04-11T11:20:11.899Z,92.00
2019-04-11T11:22:40.258Z,92.30
2019-04-11T11:25:27.932Z,92.50
2019-04-11T11:27:56.364Z,92.50
2019-04-11T11:30:39.814Z,93.10
2019-04-11T11:33:09.999Z,92.90
2019-04-11T11:36:00.549Z,92.30
2019-04-11T11:38:28.613Z,92.60
2019-04-11T11:41:11.965Z,92.60
2019-04-11T11:43:41.242Z,92.60
2019-04-11T11:46:14.387Z,92.60
2019-04-11T11:48:49.984Z,92.30
2019-04-11T11:51:31.167Z,92.40
2019-04-11T11:54:11.536Z,92.80
2019-04-11T11:56:42.522Z,92.60
2019-04-11T11:59:19.640Z,92.40
2019-04-11T12:01:55.891Z,92.80
2019-04-11T12:04:39.082Z,92.40
2019-04-11T12:07:09.592Z,92.30
2019-04-11T12:09:56.286Z,92.70
2019-04-11T12:12:27.405Z,92.60
2019-04-11T12:15:14.202Z,92.90
2019-04-11T12:17:58.092Z,92.50
2019-04-11T12:20:34.770Z,92.70
2019-04-11T12:23:08.496Z,92.90
2019-04-11T12:25:39.172Z,93.40
2019-04-11T12:28:13.218Z,93.70
2019-04-11T12:30:44.101Z,93.40
2019-04-11T12:33:14.401Z,93.50
2019-04-11T12:35:48.538Z,93.60
2019-04-11T12:38:20.347Z,94.00
2019-04-11T12:41:02.912Z,94.00
2019-04-11T12:43:44.869Z,93.90
2019-04-11T12:46:19.342Z,93.20
2019-04-11T12:48:48.006Z,93.70
2019-04-11T12:51:36.192Z,94.20
2019-04-11T12:54:05.790Z,94.60
2019-04-11T12:56:51.124Z,94.50
2019-04-11T12:59:19.589Z,94.50
2019-04-11T13:01:55.506Z,94.10
2019-04-11T13:04:25.436Z,94.20
2019-04-11T13:06:54.733Z,93.60
2019-04-11T13:09:40.080Z,94.10
2019-04-11T13:12:10.014Z,93.40
2019-04-11T13:14:51.939Z,92.80
2019-04-11T13:17:22.394Z,92.30
2019-04-11T13:20:04.234Z,92.10
2019-04-11T13:22:28.568Z,91.80
2019-04-11T13:24:58.534Z,91.50
2019-04-11T13:27:27.636Z,91.60
2019-04-11T13:29:57.637Z,91.40
2019-04-11T13:32:46.226Z,91.00
2019-04-11T13:35:22.580Z,90.80
2019-04-11T13:38:08.724Z,90.30
2019-04-11T13:40:44.916Z,90.50
2019-04-11T13:43:24.583Z,90.00
2019-04-11T13:45:54.536Z,88.50
2019-04-11T13:48:42.047Z,90.00
2019-04-11T13:51:12.711Z,88.90
2019-04-11T13:53:58.880Z,88.10
2019-04-11T13:56:35.043Z,88.60
2019-04-11T13:59:10.930Z,88.00
2019-04-11T14:01:43.790Z,87.80
2019-04-11T14:04:13.812Z,88.20
2019-04-11T14:06:41.419Z,87.10
2019-04-11T14:09:14.450Z,89.20
2019-04-11T14:11:44.590Z,86.80
2019-04-11T14:14:14.558Z,87.20
2019-04-11T14:16:46.853Z,89.50
2019-04-11T14:19:33.628Z,87.80
2019-04-11T14:22:02.300Z,87.80
2019-04-11T14:24:42.330Z,88.90
2019-04-11T14:27:12.569Z,88.20
2019-04-11T14:29:42.718Z,88.30
2019-04-11T14:32:12.696Z,87.90
2019-04-11T14:34:48.849Z,89.00
2019-04-11T14:37:21.895Z,89.40
2019-04-11T14:40:04.189Z,88.50
2019-04-11T14:42:37.269Z,88.40
2019-04-11T14:45:08.063Z,88.00
2019-04-11T14:47:39.954Z,88.30
2019-04-11T14:50:13.286Z,88.50
2019-04-11T14:53:03.046Z,88.20
2019-04-11T14:55:32.291Z,88.80
2019-04-11T14:58:18.844Z,88.20
2019-04-11T15:00:47.209Z,88.20
2019-04-11T15:03:20.149Z,89.10
2019-04-11T15:05:53.036Z,89.80
2019-04-11T15:08:23.454Z,88.60
2019-04-11T15:10:59.331Z,88.90
2019-04-11T15:13:29.228Z,89.80
2019-04-11T15:15:58.669Z,89.30
2019-04-11T15:18:27.518Z,89.80
2019-04-11T15:21:15.871Z,90.00
2019-04-11T15:23:46.976Z,89.40
2019-04-11T15:26:31.249Z,89.60
2019-04-11T15:29:04.086Z,88.90
2019-04-11T15:31:39.989Z,89.30
2019-04-11T15:34:37.592Z,88.70
2019-04-11T15:37:13.646Z,88.90
2019-04-11T15:40:00.202Z,88.50
2019-04-11T15:42:50.206Z,88.90
2019-04-11T15:45:39.674Z,89.40
2019-04-11T15:48:10.267Z,88.70
2019-04-11T15:51:06.110Z,88.70
2019-04-11T15:53:28.181Z,88.40
2019-04-11T15:56:15.996Z,88.50
2019-04-11T15:58:55.263Z,88.60
2019-04-11T16:01:26.871Z,88.70
2019-04-11T16:03:56.699Z,88.90
2019-04-11T16:06:30.582Z,88.70
2019-04-11T16:08:59.469Z,88.20
2019-04-11T16:11:45.759Z,88.10
2019-04-11T16:14:14.231Z,88.30
2019-04-11T16:16:50.554Z,88.50
2019-04-11T16:19:20.833Z,88.50
2019-04-11T16:21:54.914Z,89.40
2019-04-11T16:24:34.344Z,88.60
2019-04-11T16:27:22.388Z,89.90
2019-04-11T16:30:04.324Z,89.30
2019-04-11T16:32:37.654Z,89.10
2019-04-11T16:35:08.233Z,88.70
2019-04-11T16:37:36.822Z,89.30
2019-04-11T16:40:08.239Z,90.00
2019-04-11T16:42:38.267Z,89.20
2019-04-11T16:45:25.128Z,89.10
2019-04-11T16:47:57.670Z,88.60
2019-04-11T16:50:26.248Z,89.40
2019-04-11T16:52:54.577Z,89.00
2019-04-11T16:55:22.928Z,90.20
2019-04-11T16:57:51.309Z,90.10
2019-04-11T17:00:20.637Z,90.20
2019-04-11T17:02:49.684Z,90.00
2019-04-11T17:05:18.201Z,90.00
2019-04-11T17:07:57.360Z,90.30
2019-04-11T17:10:27.670Z,90.40
2019-04-11T17:12:56.642Z,90.00
2019-04-11T17:15:25.085Z,90.10
2019-04-11T17:17:53.681Z,90.80
2019-04-11T17:20:22.102Z,90.10
2019-04-11T17:22:50.470Z,90.30
2019-04-11T17:25:19.824Z,90.30
2019-04-11T17:27:50.663Z,90.30
2019-04-11T17:30:19.497Z,90.30
2019-04-11T17:32:48.762Z,90.10
2019-04-11T17:35:20.795Z,90.00
2019-04-11T17:37:50.285Z,89.10
2019-04-11T17:40:21.649Z,89.60
2019-04-11T17:42:52.290Z,89.70
2019-04-11T17:45:22.387Z,89.50
2019-04-11T17:47:54.813Z,90.20
2019-04-11T17:50:26.507Z,90.30
2019-04-11T17:53:02.419Z,90.50
2019-04-11T17:55:34.900Z,90.20
2019-04-11T17:58:14.026Z,90.00
2019-04-11T18:00:48.289Z,90.00
2019-04-11T18:03:20.157Z,90.00
2019-04-11T18:05:51.282Z,89.80
2019-04-11T18:08:34.780Z,90.10
2019-04-11T18:11:10.771Z,89.60
2019-04-11T18:13:49.650Z,90.20
2019-04-11T18:16:24.944Z,90.20
2019-04-11T18:19:05.764Z,90.00
2019-04-11T18:21:43.534Z,90.20
2019-04-11T18:24:19.725Z,90.40
2019-04-11T18:26:55.119Z,90.00
2019-04-11T18:29:29.659Z,90.40
2019-04-11T18:32:04.719Z,90.40
2019-04-11T18:34:45.904Z,90.10
2019-04-11T18:37:20.698Z,90.00
2019-04-11T18:40:06.370Z,90.20
2019-04-11T18:45:34.763Z,90.00
2019-04-11T18:48:15.486Z,90.50
2019-04-11T18:51:04.410Z,90.40
2019-04-11T18:59:42.541Z,89.00
2019-04-11T19:02:24.507Z,88.80
2019-04-11T19:05:02.264Z,88.90
2019-04-11T19:07:44.607Z,87.10
2019-04-11T19:10:23.019Z,87.50
2019-04-11T19:12:53.458Z,88.20
2019-04-11T19:15:32.391Z,87.70
2019-04-11T19:18:06.556Z,87.60
2019-04-11T19:20:50.020Z,88.10
2019-04-11T19:23:24.079Z,87.80
2019-04-11T19:44:08.502Z,86.70
2019-04-11T19:46:36.983Z,86.60
2019-04-11T19:49:05.955Z,86.20
2019-04-11T19:51:34.578Z,86.50
2019-04-11T19:54:03.886Z,84.90
2019-04-11T19:56:46.297Z,84.60
2019-04-11T19:59:15.018Z,85.10
2019-04-11T20:01:45.158Z,85.40
2019-04-11T20:04:13.774Z,84.40
2019-04-11T20:06:42.800Z,84.10
2019-04-11T20:09:11.475Z,83.50
2019-04-11T20:11:40.651Z,84.30
2019-04-11T20:14:13.221Z,84.30
2019-04-11T20:16:45.292Z,83.80
2019-04-11T20:19:14.231Z,83.90
2019-04-11T20:21:43.091Z,83.00
2019-04-11T20:24:14.500Z,83.00
2019-04-11T20:26:50.370Z,84.20
2019-04-11T20:29:22.166Z,84.80
2019-04-11T20:31:57.427Z,83.80
2019-04-11T20:34:30.417Z,83.60
2019-04-11T20:37:03.062Z,83.30
2019-04-11T20:39:32.094Z,83.80
2019-04-11T20:42:00.878Z,83.90
2019-04-11T20:44:30.077Z,84.20
2019-04-11T20:47:02.357Z,84.80
2019-04-11T20:49:36.370Z,84.10
2019-04-11T20:52:05.332Z,83.90
2019-04-11T20:54:39.181Z,85.10
2019-04-11T20:57:11.882Z,84.20
2019-04-11T20:59:41.707Z,83.80
2019-04-11T21:02:08.832Z,84.60
2019-04-11T21:04:39.295Z,84.30
2019-04-11T21:07:08.113Z,83.60
2019-04-11T21:09:37.119Z,83.70
2019-04-11T21:12:10.674Z,84.10
2019-04-11T21:14:40.005Z,83.70
2019-04-11T21:17:08.308Z,83.60
2019-04-11T21:19:36.749Z,84.60
2019-04-11T21:22:05.436Z,83.50
2019-04-11T21:24:33.931Z,83.50
2019-04-11T21:27:02.603Z,84.20
2019-04-11T21:29:30.999Z,84.80
2019-04-11T21:32:01.062Z,83.10
2019-04-11T21:34:29.951Z,84.70
2019-04-11T21:37:01.853Z,83.60
2019-04-11T21:39:29.911Z,84.20
2019-04-11T21:41:58.305Z,84.80
2019-04-11T21:44:26.647Z,84.70
2019-04-11T21:46:55.163Z,84.10
2019-04-11T21:49:24.055Z,83.40
2019-04-11T21:51:52.509Z,83.80
2019-04-11T21:54:20.865Z,84.60
2019-04-11T21:56:50.370Z,85.00
2019-04-11T21:59:20.370Z,85.00
2019-04-11T22:01:53.814Z,84.50
2019-04-11T22:04:19.931Z,85.20
2019-04-11T22:06:49.106Z,85.80
2019-04-11T22:09:17.498Z,86.00
2019-04-11T22:11:46.192Z,86.00
2019-04-11T22:14:14.633Z,86.80
2019-04-11T22:16:45.117Z,87.30
2019-04-11T22:19:14.293Z,88.00
2019-04-11T22:21:45.325Z,88.50
2019-04-11T22:24:14.078Z,89.30
2019-04-11T22:26:55.351Z,90.00
2019-04-11T22:29:25.067Z,90.40
2019-04-11T22:31:55.810Z,90.60
2019-04-11T22:34:30.738Z,91.00
2019-04-11T22:37:00.072Z,91.20
2019-04-11T22:39:31.493Z,91.50
2019-04-11T22:41:59.669Z,91.20
2019-04-11T22:44:28.015Z,91.60
2019-04-11T22:46:56.524Z,91.10
2019-04-11T22:49:25.472Z,91.50
2019-04-11T22:51:53.755Z,91.80
2019-04-11T22:54:22.019Z,91.50
2019-04-11T22:56:51.242Z,91.90
2019-04-11T22:59:19.564Z,92.00
2019-04-11T23:01:48.589Z,91.70
2019-04-11T23:04:17.628Z,92.30
2019-04-11T23:06:47.245Z,91.90
2019-04-11T23:09:19.568Z,91.80
2019-04-11T23:11:47.310Z,92.20
2019-04-11T23:14:15.992Z,92.00
2019-04-11T23:16:45.296Z,92.00
2019-04-11T23:19:14.443Z,92.40
2019-04-11T23:21:42.962Z,92.70
2019-04-11T23:24:15.221Z,92.30
2019-04-11T23:26:44.746Z,92.60
2019-04-11T23:29:15.626Z,92.50
2019-04-11T23:31:43.677Z,92.10
2019-04-11T23:34:12.037Z,92.50
2019-04-11T23:36:40.873Z,92.60
2019-04-11T23:39:09.777Z,93.20
2019-04-11T23:41:38.137Z,93.20
2019-04-11T23:44:06.454Z,93.20
2019-04-11T23:46:34.713Z,92.10
2019-04-11T23:49:03.019Z,92.50
2019-04-11T23:51:31.291Z,92.10
2019-04-11T23:53:59.934Z,92.40
2019-04-11T23:56:30.752Z,92.00
2019-04-11T23:59:01.649Z,92.30
